createdAt,value
2022-11-30T00:00:22.889Z,535
2022-11-30T00:01:22.894Z,628
2022-11-30T00:02:23.029Z,656
2022-11-30T00:03:23.062Z,566
2022-11-30T00:04:22.931Z,591
2022-11-30T00:05:22.895Z,725
2022-11-30T00:06:22.978Z,534
2022-11-30T00:07:22.917Z,382
2022-11-30T00:08:22.896Z,639
2022-11-30T00:09:23.011Z,413
2022-11-30T00:10:22.895Z,342
2022-11-30T00:11:22.949Z,311
2022-11-30T00:12:22.929Z,267
2022-11-30T00:13:22.914Z,318
2022-11-30T00:14:22.908Z,236
2022-11-30T00:15:22.895Z,197
2022-11-30T00:16:22.995Z,178
2022-11-30T00:17:22.887Z,309
2022-11-30T00:18:22.901Z,360
2022-11-30T00:19:22.926Z,333
2022-11-30T00:20:22.892Z,460
2022-11-30T00:21:22.893Z,413
2022-11-30T00:22:22.886Z,641
2022-11-30T00:23:22.906Z,607
2022-11-30T00:24:22.890Z,704
2022-11-30T00:25:22.883Z,705
2022-11-30T00:26:22.943Z,967
2022-11-30T00:27:22.930Z,784
2022-11-30T00:28:22.897Z,685
2022-11-30T00:29:22.884Z,583
2022-11-30T00:30:22.890Z,567
2022-11-30T00:31:22.929Z,702
2022-11-30T00:32:22.893Z,567
2022-11-30T00:33:22.899Z,708
2022-11-30T00:34:22.923Z,786
2022-11-30T00:35:22.954Z,644
2022-11-30T00:36:22.891Z,916
2022-11-30T00:37:22.899Z,821
2022-11-30T00:38:22.882Z,985
2022-11-30T00:39:22.892Z,842
2022-11-30T00:40:22.890Z,1017
2022-11-30T00:41:22.908Z,1021
2022-11-30T00:42:22.935Z,940
2022-11-30T00:43:22.946Z,1124
2022-11-30T00:44:22.902Z,1112
2022-11-30T00:45:22.874Z,1242
2022-11-30T00:46:22.939Z,1214
2022-11-30T00:47:22.893Z,1104
2022-11-30T00:48:22.908Z,1053
2022-11-30T00:49:22.880Z,1026
2022-11-30T00:50:22.938Z,884
2022-11-30T00:51:22.922Z,886
2022-11-30T00:52:22.889Z,876
2022-11-30T00:53:22.896Z,755
2022-11-30T00:54:22.903Z,867
2022-11-30T00:55:22.885Z,861
2022-11-30T00:56:24.721Z,724
2022-11-30T00:57:22.893Z,619
2022-11-30T00:58:22.938Z,427
2022-11-30T00:59:22.923Z,440
2022-11-30T01:00:22.887Z,366
2022-11-30T01:01:23.017Z,453
2022-11-30T01:02:22.975Z,363
2022-11-30T01:03:22.875Z,476
2022-11-30T01:04:22.908Z,343
2022-11-30T01:05:22.879Z,336
2022-11-30T01:06:22.938Z,329
2022-11-30T01:07:22.930Z,351
2022-11-30T01:08:22.886Z,392
2022-11-30T01:09:22.901Z,425
2022-11-30T01:10:22.966Z,496
2022-11-30T01:11:22.883Z,596
2022-11-30T01:12:23.122Z,482
2022-11-30T01:13:23.080Z,430
2022-11-30T01:14:23.160Z,298
2022-11-30T01:15:23.218Z,557
2022-11-30T01:16:22.911Z,308
2022-11-30T01:17:22.898Z,628
2022-11-30T01:18:22.878Z,499
2022-11-30T01:19:22.880Z,528
2022-11-30T01:20:22.899Z,813
2022-11-30T01:21:22.942Z,899
2022-11-30T01:22:22.921Z,900
2022-11-30T01:23:22.893Z,383
2022-11-30T01:24:22.894Z,822
2022-11-30T01:25:22.895Z,914
2022-11-30T01:26:22.894Z,970
2022-11-30T01:27:22.904Z,1051
2022-11-30T01:28:22.900Z,1241
2022-11-30T01:29:22.937Z,959
2022-11-30T01:30:22.931Z,987
2022-11-30T01:31:22.992Z,1005
2022-11-30T01:32:22.882Z,988
2022-11-30T01:33:22.908Z,1135
2022-11-30T01:34:22.890Z,1073
2022-11-30T01:35:22.870Z,1196
2022-11-30T01:36:22.888Z,1319
2022-11-30T01:38:22.897Z,1305
2022-11-30T01:39:22.886Z,1380
2022-11-30T01:40:22.894Z,1195
2022-11-30T01:41:22.893Z,1422
2022-11-30T01:42:22.887Z,1430
2022-11-30T01:43:22.929Z,1374
2022-11-30T01:44:22.984Z,1312
2022-11-30T01:45:22.924Z,1308
2022-11-30T01:46:22.948Z,1097
2022-11-30T01:47:22.896Z,1302
2022-11-30T01:48:22.899Z,1494
2022-11-30T01:49:22.884Z,1426
2022-11-30T01:50:22.875Z,1424
2022-11-30T01:51:22.891Z,1487
2022-11-30T01:52:22.912Z,1370
2022-11-30T01:53:22.967Z,1332
2022-11-30T01:54:22.878Z,1388
2022-11-30T01:55:22.889Z,1233
2022-11-30T01:56:22.874Z,1322
2022-11-30T01:57:22.931Z,1356
2022-11-30T01:58:22.889Z,1392
2022-11-30T01:59:22.886Z,1227
2022-11-30T02:00:23.156Z,402
2022-11-30T02:01:23.317Z,1337
2022-11-30T02:02:22.952Z,1350
2022-11-30T02:03:22.879Z,1081
2022-11-30T02:04:22.883Z,993
2022-11-30T02:05:22.900Z,1453
2022-11-30T02:06:22.874Z,889
2022-11-30T02:07:22.948Z,1399
2022-11-30T02:08:23.100Z,1334
2022-11-30T02:09:22.926Z,1151
2022-11-30T02:10:22.884Z,1381
2022-11-30T02:11:22.881Z,1537
2022-11-30T02:12:22.867Z,1331
2022-11-30T02:13:22.881Z,1500
2022-11-30T02:14:22.907Z,1505
2022-11-30T02:15:22.882Z,1297
2022-11-30T02:16:22.934Z,1463
2022-11-30T02:17:22.935Z,1311
2022-11-30T02:18:22.879Z,1551
2022-11-30T02:19:22.891Z,1464
2022-11-30T02:20:22.885Z,1261
2022-11-30T02:21:22.885Z,1251
2022-11-30T02:22:22.898Z,1376
2022-11-30T02:23:22.868Z,1252
2022-11-30T02:24:22.938Z,1382
2022-11-30T02:25:22.885Z,1310
2022-11-30T02:26:22.893Z,1466
2022-11-30T02:27:22.879Z,1269
2022-11-30T02:28:22.902Z,1279
2022-11-30T02:29:22.894Z,1498
2022-11-30T02:30:22.912Z,1324
2022-11-30T02:31:23.048Z,1284
2022-11-30T02:32:22.931Z,1439
2022-11-30T02:33:22.881Z,1390
2022-11-30T02:34:22.883Z,1437
2022-11-30T02:35:22.880Z,983
2022-11-30T02:36:22.887Z,1211
2022-11-30T02:37:22.882Z,1090
2022-11-30T02:38:22.888Z,1283
2022-11-30T02:39:22.906Z,1246
2022-11-30T02:40:22.936Z,1284
2022-11-30T02:41:22.877Z,1364
2022-11-30T02:42:22.891Z,1365
2022-11-30T02:43:22.885Z,1235
2022-11-30T02:44:22.880Z,1090
2022-11-30T02:45:22.878Z,1373
2022-11-30T02:46:22.920Z,1443
2022-11-30T02:47:22.921Z,1517
2022-11-30T02:48:23.029Z,1133
2022-11-30T02:49:22.876Z,1105
2022-11-30T02:50:22.885Z,1396
2022-11-30T02:51:22.882Z,359
2022-11-30T02:52:22.876Z,1031
2022-11-30T02:53:22.890Z,368
2022-11-30T02:54:22.878Z,1549
2022-11-30T02:55:22.930Z,1165
2022-11-30T02:56:23.048Z,1398
2022-11-30T02:57:22.878Z,1362
2022-11-30T02:58:22.878Z,1335
2022-11-30T02:59:22.881Z,1305
2022-11-30T03:00:22.885Z,1271
2022-11-30T03:01:22.968Z,1403
2022-11-30T03:02:22.943Z,1220
2022-11-30T03:03:22.937Z,1490
2022-11-30T03:04:22.922Z,1434
2022-11-30T03:05:22.970Z,1370
2022-11-30T03:06:22.882Z,1445
2022-11-30T03:07:22.921Z,1413
2022-11-30T03:08:22.879Z,1348
2022-11-30T03:09:22.884Z,1315
2022-11-30T03:10:22.885Z,1324
2022-11-30T03:11:22.985Z,1423
2022-11-30T03:12:22.887Z,1066
2022-11-30T03:13:22.882Z,1061
2022-11-30T03:14:22.894Z,1390
2022-11-30T03:15:22.898Z,1259
2022-11-30T03:16:22.912Z,1299
2022-11-30T03:17:22.895Z,1472
2022-11-30T03:18:22.891Z,1524
2022-11-30T03:19:22.947Z,1291
2022-11-30T03:20:22.906Z,1073
2022-11-30T03:21:22.882Z,1144
2022-11-30T03:22:22.882Z,1333
2022-11-30T03:23:22.878Z,1319
2022-11-30T03:24:22.871Z,1423
2022-11-30T03:25:22.876Z,1212
2022-11-30T03:26:22.918Z,1335
2022-11-30T03:27:22.964Z,1400
2022-11-30T03:28:22.897Z,1477
2022-11-30T03:29:22.899Z,922
2022-11-30T03:30:22.880Z,1451
2022-11-30T03:31:23.021Z,1527
2022-11-30T03:32:22.904Z,1424
2022-11-30T03:33:22.967Z,1294
2022-11-30T03:34:22.925Z,1395
2022-11-30T03:35:22.935Z,1262
2022-11-30T03:36:22.881Z,1333
2022-11-30T03:37:22.958Z,1207
2022-11-30T03:38:22.896Z,954
2022-11-30T03:39:22.879Z,1429
2022-11-30T03:40:22.888Z,1353
2022-11-30T03:41:22.882Z,1420
2022-11-30T03:42:23.123Z,978
2022-11-30T03:43:22.918Z,1561
2022-11-30T03:44:22.991Z,1430
2022-11-30T03:45:23.087Z,1424
2022-11-30T03:46:22.881Z,1446
2022-11-30T03:47:22.896Z,1571
2022-11-30T03:48:22.905Z,1454
2022-11-30T03:49:22.913Z,1396
2022-11-30T03:50:22.950Z,1535
2022-11-30T03:51:22.911Z,1346
2022-11-30T03:52:22.877Z,1342
2022-11-30T03:53:22.891Z,1316
2022-11-30T03:54:22.867Z,1452
2022-11-30T03:55:22.883Z,1506
2022-11-30T03:56:22.872Z,1312
2022-11-30T03:57:22.880Z,1254
2022-11-30T03:58:22.923Z,1419
2022-11-30T03:59:22.887Z,1413
2022-11-30T04:00:22.900Z,1483
2022-11-30T04:01:22.917Z,1444
2022-11-30T04:02:22.960Z,1502
2022-11-30T04:03:22.980Z,1495
2022-11-30T04:04:22.876Z,1445
2022-11-30T04:05:22.900Z,1320
2022-11-30T04:06:22.918Z,1515
2022-11-30T04:07:22.953Z,1619
2022-11-30T04:08:22.890Z,951
2022-11-30T04:09:22.886Z,1633
2022-11-30T04:10:22.932Z,1439
2022-11-30T04:11:22.878Z,1555
2022-11-30T04:12:22.883Z,1481
2022-11-30T04:13:22.939Z,1419
2022-11-30T04:14:22.935Z,1474
2022-11-30T04:15:22.880Z,1418
2022-11-30T04:16:23.005Z,1489
2022-11-30T04:17:22.879Z,1482
2022-11-30T04:18:22.900Z,1578
2022-11-30T04:19:22.878Z,1489
2022-11-30T04:20:22.872Z,1580
2022-11-30T04:21:22.947Z,511
2022-11-30T04:22:22.922Z,1564
2022-11-30T04:23:22.880Z,1507
2022-11-30T04:24:22.871Z,1205
2022-11-30T04:25:22.887Z,1431
2022-11-30T04:26:22.880Z,1383
2022-11-30T04:27:22.919Z,1285
2022-11-30T04:28:22.889Z,1550
2022-11-30T04:29:22.922Z,1424
2022-11-30T04:30:22.928Z,1498
2022-11-30T04:31:22.943Z,1415
2022-11-30T04:32:22.894Z,1424
2022-11-30T04:33:22.894Z,1448
2022-11-30T04:34:22.879Z,1494
2022-11-30T04:35:22.907Z,1325
2022-11-30T04:36:22.880Z,1179
2022-11-30T04:37:22.933Z,1365
2022-11-30T04:38:22.910Z,1174
2022-11-30T04:39:22.891Z,814
2022-11-30T04:40:22.865Z,1209
2022-11-30T04:41:22.867Z,1283
2022-11-30T04:42:22.885Z,1148
2022-11-30T04:43:22.895Z,1280
2022-11-30T04:44:22.901Z,1159
2022-11-30T04:45:22.916Z,1187
2022-11-30T04:46:22.910Z,1361
2022-11-30T04:47:22.859Z,1325
2022-11-30T04:48:22.889Z,1227
2022-11-30T04:49:22.868Z,1364
2022-11-30T04:50:22.868Z,1069
2022-11-30T04:51:22.852Z,1243
2022-11-30T04:52:22.949Z,1316
2022-11-30T04:53:22.938Z,1163
2022-11-30T04:54:22.876Z,1084
2022-11-30T04:55:22.931Z,1243
2022-11-30T04:56:22.879Z,1195
2022-11-30T04:57:22.865Z,987
2022-11-30T04:58:22.896Z,1251
2022-11-30T04:59:22.875Z,1008
2022-11-30T05:00:22.920Z,1298
2022-11-30T05:01:22.941Z,1076
2022-11-30T05:02:22.881Z,1147
2022-11-30T05:03:22.905Z,1257
2022-11-30T05:04:22.978Z,1227
2022-11-30T05:05:22.870Z,1104
2022-11-30T05:06:22.904Z,1290
2022-11-30T05:07:22.907Z,1230
2022-11-30T05:08:22.940Z,1283
2022-11-30T05:09:22.927Z,1197
2022-11-30T05:10:22.882Z,1220
2022-11-30T05:11:22.865Z,1175
2022-11-30T05:12:22.885Z,1025
2022-11-30T05:13:22.887Z,1143
2022-11-30T05:14:22.881Z,1169
2022-11-30T05:15:22.871Z,1177
2022-11-30T05:16:22.969Z,1172
2022-11-30T05:17:22.867Z,1195
2022-11-30T05:18:22.904Z,1171
2022-11-30T05:19:22.877Z,1208
2022-11-30T05:20:22.867Z,1245
2022-11-30T05:21:22.858Z,1200
2022-11-30T05:22:22.872Z,1314
2022-11-30T05:23:22.937Z,1285
2022-11-30T05:24:22.931Z,1213
2022-11-30T05:25:22.869Z,1076
2022-11-30T05:26:22.892Z,993
2022-11-30T05:27:22.997Z,1169
2022-11-30T05:28:22.900Z,1182
2022-11-30T05:29:22.872Z,1184
2022-11-30T05:30:22.859Z,974
2022-11-30T05:31:22.984Z,1277
2022-11-30T05:32:22.906Z,1162
2022-11-30T05:33:22.895Z,1281
2022-11-30T05:34:22.883Z,1222
2022-11-30T05:35:22.878Z,1310
2022-11-30T05:36:22.886Z,1226
2022-11-30T05:37:22.868Z,1196
2022-11-30T05:38:22.900Z,1178
2022-11-30T05:39:22.919Z,1250
2022-11-30T05:40:22.917Z,1274
2022-11-30T05:41:22.858Z,1080
2022-11-30T05:42:22.862Z,1198
2022-11-30T05:43:22.892Z,1071
2022-11-30T05:44:22.850Z,1167
2022-11-30T05:45:22.912Z,1089
2022-11-30T05:46:22.899Z,877
2022-11-30T05:47:22.933Z,1146
2022-11-30T05:48:23.069Z,1121
2022-11-30T05:49:22.884Z,1174
2022-11-30T05:50:22.862Z,1036
2022-11-30T05:51:22.864Z,1059
2022-11-30T05:52:22.871Z,781
2022-11-30T05:53:22.892Z,1122
2022-11-30T05:54:22.879Z,1047
2022-11-30T05:55:22.918Z,1184
2022-11-30T05:56:23.019Z,1209
2022-11-30T05:57:22.865Z,1093
2022-11-30T05:58:22.876Z,1258
2022-11-30T05:59:22.889Z,1225
2022-11-30T06:00:22.868Z,1195
2022-11-30T06:01:22.859Z,1089
2022-11-30T06:02:28.003Z,1200
2022-11-30T06:03:23.060Z,1284
2022-11-30T06:04:22.880Z,1095
2022-11-30T06:05:22.868Z,1253
2022-11-30T06:06:22.885Z,1235
2022-11-30T06:07:22.935Z,770
2022-11-30T06:08:22.871Z,782
2022-11-30T06:09:22.966Z,668
2022-11-30T06:10:22.891Z,1256
2022-11-30T06:11:22.904Z,888
2022-11-30T06:12:22.904Z,1037
2022-11-30T06:13:28.595Z,1159
2022-11-30T06:14:22.865Z,1132
2022-11-30T06:15:22.873Z,1203
2022-11-30T06:16:22.905Z,426
2022-11-30T06:17:22.883Z,465
2022-11-30T06:18:22.953Z,1150
2022-11-30T06:19:22.910Z,1036
2022-11-30T06:20:22.868Z,651
2022-11-30T06:21:24.917Z,960
2022-11-30T06:22:22.870Z,1143
2022-11-30T06:23:22.872Z,1171
2022-11-30T06:24:22.918Z,1055
2022-11-30T06:25:23.202Z,1148
2022-11-30T06:26:22.913Z,1245
2022-11-30T06:27:22.916Z,1176
2022-11-30T06:28:22.929Z,1168
2022-11-30T06:29:22.872Z,1096
2022-11-30T06:30:22.881Z,990
2022-11-30T06:31:22.918Z,904
2022-11-30T06:32:22.912Z,890
2022-11-30T06:33:22.906Z,985
2022-11-30T06:34:22.931Z,1176
2022-11-30T06:35:22.900Z,998
2022-11-30T06:36:22.880Z,1063
2022-11-30T06:37:22.856Z,1256
2022-11-30T06:38:22.873Z,916
2022-11-30T06:39:42.963Z,515
2022-11-30T06:40:22.890Z,1083
2022-11-30T06:41:22.868Z,1169
2022-11-30T06:42:22.934Z,1063
2022-11-30T06:43:22.881Z,1160
2022-11-30T06:44:22.889Z,1198
2022-11-30T06:45:22.853Z,1037
2022-11-30T06:46:22.924Z,1068
2022-11-30T06:47:22.862Z,1102
2022-11-30T06:48:22.888Z,845
2022-11-30T06:49:22.884Z,843
2022-11-30T06:50:22.901Z,894
2022-11-30T06:51:22.896Z,1112
2022-11-30T06:52:22.868Z,1120
2022-11-30T06:53:22.895Z,1144
2022-11-30T06:54:22.855Z,909
2022-11-30T06:55:22.871Z,642
2022-11-30T06:56:22.911Z,1132
2022-11-30T06:57:22.906Z,1227
2022-11-30T06:58:22.983Z,1279
2022-11-30T06:59:22.859Z,1277
2022-11-30T07:00:22.868Z,1111
2022-11-30T07:01:22.921Z,1144
2022-11-30T07:02:22.869Z,1324
2022-11-30T07:03:22.925Z,1249
2022-11-30T07:04:22.917Z,1401
2022-11-30T07:05:23.150Z,1360
2022-11-30T07:06:23.106Z,1269
2022-11-30T07:07:23.133Z,1158
2022-11-30T07:08:23.263Z,1149
2022-11-30T07:09:22.874Z,1063
2022-11-30T07:10:22.878Z,1186
2022-11-30T07:11:22.905Z,931
2022-11-30T07:12:22.899Z,879
2022-11-30T07:13:22.940Z,1104
2022-11-30T07:14:22.866Z,949
2022-11-30T07:15:22.875Z,1316
2022-11-30T07:16:22.896Z,1296
2022-11-30T07:17:22.866Z,1234
2022-11-30T07:18:25.884Z,1304
2022-11-30T07:19:22.863Z,1199
2022-11-30T07:20:22.861Z,1080
2022-11-30T07:21:22.924Z,1176
2022-11-30T07:22:22.861Z,1182
2022-11-30T07:23:22.872Z,1115
2022-11-30T07:24:22.871Z,1242
2022-11-30T07:25:22.954Z,1336
2022-11-30T07:26:22.870Z,898
2022-11-30T07:27:22.923Z,1192
2022-11-30T07:28:22.906Z,1335
2022-11-30T07:29:22.923Z,1312
2022-11-30T07:30:22.866Z,1345
2022-11-30T07:31:22.932Z,1146
2022-11-30T07:32:22.878Z,1316
2022-11-30T07:33:22.897Z,1182
2022-11-30T07:34:22.858Z,1437
2022-11-30T07:35:22.866Z,1152
2022-11-30T07:36:22.921Z,1268
2022-11-30T07:37:22.908Z,1262
2022-11-30T07:38:22.871Z,1459
2022-11-30T07:39:22.960Z,1099
2022-11-30T07:40:22.885Z,1021
2022-11-30T07:41:22.864Z,983
2022-11-30T07:42:22.944Z,959
2022-11-30T07:43:22.875Z,1424
2022-11-30T07:44:22.920Z,1334
2022-11-30T07:45:22.905Z,1313
2022-11-30T07:46:22.930Z,1355
2022-11-30T07:47:22.868Z,1380
2022-11-30T07:48:22.894Z,1240
2022-11-30T07:49:22.965Z,1390
2022-11-30T07:50:22.850Z,750
2022-11-30T07:51:22.903Z,1187
2022-11-30T07:52:22.920Z,971
2022-11-30T07:53:22.922Z,970
2022-11-30T07:54:22.853Z,998
2022-11-30T07:55:22.870Z,952
2022-11-30T07:56:22.863Z,791
2022-11-30T07:57:22.848Z,1081
2022-11-30T07:58:22.911Z,747
2022-11-30T07:59:22.879Z,618
2022-11-30T08:00:22.908Z,863
2022-11-30T08:01:22.994Z,934
2022-11-30T08:02:22.979Z,864
2022-11-30T08:03:22.888Z,895
2022-11-30T08:04:22.946Z,874
2022-11-30T08:05:22.862Z,770
2022-11-30T08:06:22.857Z,589
2022-11-30T08:07:22.918Z,627
2022-11-30T08:08:22.925Z,621
2022-11-30T08:09:22.860Z,648
2022-11-30T08:10:22.852Z,480
2022-11-30T08:11:22.864Z,557
2022-11-30T08:12:22.858Z,801
2022-11-30T08:13:22.867Z,565
2022-11-30T08:14:22.883Z,613
2022-11-30T08:15:27.419Z,722
2022-11-30T08:16:22.975Z,454
2022-11-30T08:17:22.954Z,422
2022-11-30T08:18:22.901Z,654
2022-11-30T08:19:22.899Z,614
2022-11-30T08:20:22.872Z,565
2022-11-30T08:21:22.855Z,689
2022-11-30T08:22:22.886Z,870
2022-11-30T08:23:22.905Z,673
2022-11-30T08:24:22.970Z,448
2022-11-30T08:25:22.862Z,416
2022-11-30T08:26:23.269Z,634
2022-11-30T08:27:22.945Z,631
2022-11-30T08:28:22.862Z,484
2022-11-30T08:29:22.931Z,677
2022-11-30T08:30:27.725Z,651
2022-11-30T08:31:23.044Z,609
2022-11-30T08:32:22.910Z,595
2022-11-30T08:33:22.890Z,477
2022-11-30T08:34:22.854Z,546
2022-11-30T08:35:22.860Z,686
2022-11-30T08:36:22.855Z,668
2022-11-30T08:37:22.862Z,974
2022-11-30T08:38:22.879Z,996
2022-11-30T08:39:22.970Z,1131
2022-11-30T08:40:22.856Z,1358
2022-11-30T08:41:22.909Z,1368
2022-11-30T08:42:22.845Z,1171
2022-11-30T08:43:22.914Z,1503
2022-11-30T08:44:22.871Z,1633
2022-11-30T08:45:22.861Z,1666
2022-11-30T08:46:52.281Z,1574
2022-11-30T08:47:22.997Z,1585
2022-11-30T08:48:22.954Z,1541
2022-11-30T08:49:24.187Z,392
2022-11-30T08:50:22.917Z,716
2022-11-30T08:51:22.858Z,500
2022-11-30T08:52:22.861Z,741
2022-11-30T08:53:22.901Z,483
2022-11-30T08:54:22.889Z,463
2022-11-30T08:55:22.902Z,492
2022-11-30T08:56:22.859Z,454
2022-11-30T08:57:22.862Z,464
2022-11-30T08:58:23.031Z,313
2022-11-30T08:59:23.148Z,407
2022-11-30T09:00:23.229Z,336
2022-11-30T09:01:25.929Z,373
2022-11-30T09:02:22.929Z,367
2022-11-30T09:03:22.936Z,391
2022-11-30T09:04:22.872Z,337
2022-11-30T09:05:22.898Z,307
2022-11-30T09:06:22.865Z,318
2022-11-30T09:07:22.921Z,294
2022-11-30T09:08:22.871Z,383
2022-11-30T09:09:22.869Z,308
2022-11-30T09:10:22.961Z,336
2022-11-30T09:11:22.885Z,362
2022-11-30T09:12:22.863Z,336
2022-11-30T09:13:22.862Z,370
2022-11-30T09:14:22.869Z,349
2022-11-30T09:15:22.864Z,327
2022-11-30T09:16:22.925Z,347
2022-11-30T09:17:22.899Z,263
2022-11-30T09:18:22.969Z,306
2022-11-30T09:19:22.910Z,263
2022-11-30T09:20:22.866Z,337
2022-11-30T09:21:22.875Z,303
2022-11-30T09:22:22.859Z,385
2022-11-30T09:23:22.995Z,302
2022-11-30T09:24:22.920Z,326
2022-11-30T09:25:22.861Z,350
2022-11-30T09:26:22.902Z,347
2022-11-30T09:27:22.896Z,344
2022-11-30T09:28:22.869Z,248
2022-11-30T09:29:22.853Z,292
2022-11-30T09:30:22.870Z,343
2022-11-30T09:31:22.912Z,321
2022-11-30T09:32:22.857Z,323
2022-11-30T09:33:23.155Z,348
2022-11-30T09:34:23.124Z,346
2022-11-30T09:35:22.890Z,341
2022-11-30T09:36:22.901Z,266
2022-11-30T09:37:23.058Z,332
2022-11-30T09:38:22.959Z,372
2022-11-30T09:39:22.929Z,286
2022-11-30T09:40:22.885Z,252
2022-11-30T09:41:22.905Z,281
2022-11-30T09:42:22.961Z,282
2022-11-30T09:43:23.225Z,264
2022-11-30T09:44:23.325Z,267
2022-11-30T09:45:22.882Z,248
2022-11-30T09:46:22.996Z,251
2022-11-30T09:47:25.083Z,224
2022-11-30T09:48:23.049Z,209
2022-11-30T09:49:22.948Z,210
2022-11-30T09:50:22.937Z,203
2022-11-30T09:51:22.941Z,202
2022-11-30T09:52:22.870Z,218
2022-11-30T09:53:28.929Z,193
2022-11-30T09:54:22.852Z,212
2022-11-30T09:55:22.855Z,202
2022-11-30T09:56:22.874Z,203
2022-11-30T09:57:22.937Z,201
2022-11-30T09:58:22.950Z,193
2022-11-30T09:59:22.861Z,201
2022-11-30T10:00:22.858Z,196
2022-11-30T10:01:22.924Z,197
2022-11-30T10:02:23.124Z,189
2022-11-30T10:03:22.963Z,192
2022-11-30T10:04:22.870Z,198
2022-11-30T10:05:22.914Z,193
2022-11-30T10:06:22.892Z,188
2022-11-30T10:07:22.884Z,177
2022-11-30T10:08:22.884Z,181
2022-11-30T10:09:22.849Z,172
2022-11-30T10:10:37.494Z,168
2022-11-30T10:11:22.873Z,171
2022-11-30T10:12:22.859Z,162
2022-11-30T10:13:22.955Z,187
2022-11-30T10:14:22.853Z,185
2022-11-30T10:15:22.860Z,179
2022-11-30T10:16:22.899Z,190
2022-11-30T10:17:22.877Z,178
2022-11-30T10:18:22.867Z,172
2022-11-30T10:19:22.874Z,185
2022-11-30T10:20:22.885Z,202
2022-11-30T10:21:22.907Z,196
2022-11-30T10:22:22.885Z,196
2022-11-30T10:23:22.872Z,179
2022-11-30T10:24:22.865Z,169
2022-11-30T10:25:22.841Z,171
2022-11-30T10:26:22.876Z,191
2022-11-30T10:27:22.852Z,172
2022-11-30T10:28:46.447Z,187
2022-11-30T10:29:22.901Z,155
2022-11-30T10:30:22.852Z,183
2022-11-30T10:31:22.914Z,166
2022-11-30T10:32:22.853Z,169
2022-11-30T10:33:22.920Z,179
2022-11-30T10:34:22.868Z,162
2022-11-30T10:35:23.020Z,171
2022-11-30T10:36:22.899Z,171
2022-11-30T10:37:23.138Z,179
2022-11-30T10:38:22.945Z,147
2022-11-30T10:39:22.854Z,173
2022-11-30T10:40:22.864Z,160
2022-11-30T10:41:22.852Z,178
2022-11-30T10:42:22.857Z,175
2022-11-30T10:43:22.863Z,180
2022-11-30T10:44:22.895Z,154
2022-11-30T10:45:22.906Z,183
2022-11-30T10:46:22.921Z,169
2022-11-30T10:47:22.866Z,184
2022-11-30T10:48:22.902Z,154
2022-11-30T10:49:22.867Z,157
2022-11-30T10:50:22.862Z,183
2022-11-30T10:51:22.894Z,159
2022-11-30T10:52:22.903Z,155
2022-11-30T10:53:22.867Z,166
2022-11-30T10:54:22.845Z,144
2022-11-30T10:55:22.859Z,149
2022-11-30T10:56:22.863Z,150
2022-11-30T10:57:22.858Z,156
2022-11-30T10:58:22.886Z,161
2022-11-30T10:59:22.883Z,166
2022-11-30T11:00:22.899Z,155
2022-11-30T11:01:22.900Z,164
2022-11-30T11:02:22.871Z,145
2022-11-30T11:03:22.881Z,168
2022-11-30T11:04:22.989Z,174
2022-11-30T11:05:22.861Z,136
2022-11-30T11:06:22.855Z,155
2022-11-30T11:07:23.040Z,164
2022-11-30T11:08:23.013Z,158
2022-11-30T11:09:22.868Z,143
2022-11-30T11:10:22.891Z,126
2022-11-30T11:11:22.861Z,172
2022-11-30T11:12:22.838Z,156
2022-11-30T11:13:22.914Z,150
2022-11-30T11:14:22.848Z,150
2022-11-30T11:15:22.900Z,128
2022-11-30T11:16:22.997Z,125
2022-11-30T11:17:22.851Z,131
2022-11-30T11:18:22.897Z,117
2022-11-30T11:19:22.861Z,128
2022-11-30T11:20:22.864Z,106
2022-11-30T11:21:22.888Z,139
2022-11-30T11:22:22.848Z,130
2022-11-30T11:23:22.924Z,148
2022-11-30T11:24:22.886Z,141
2022-11-30T11:25:22.851Z,149
2022-11-30T11:26:22.838Z,129
2022-11-30T11:27:22.880Z,108
2022-11-30T11:28:22.869Z,144
2022-11-30T11:29:22.845Z,156
2022-11-30T11:30:22.883Z,141
2022-11-30T11:31:22.992Z,121
2022-11-30T11:32:22.854Z,137
2022-11-30T11:33:22.872Z,126
2022-11-30T11:34:23.201Z,130
2022-11-30T11:35:22.918Z,126
2022-11-30T11:36:22.863Z,134
2022-11-30T11:37:22.862Z,134
2022-11-30T11:38:22.937Z,142
2022-11-30T11:39:22.883Z,131
2022-11-30T11:40:22.847Z,131
2022-11-30T11:41:22.836Z,127
2022-11-30T11:42:22.866Z,150
2022-11-30T11:43:22.869Z,144
2022-11-30T11:44:22.847Z,134
2022-11-30T11:45:22.855Z,113
2022-11-30T11:46:22.954Z,136
2022-11-30T11:47:22.889Z,157
2022-11-30T11:48:28.758Z,131
2022-11-30T11:49:22.942Z,121
2022-11-30T11:50:49.914Z,126
2022-11-30T11:51:22.841Z,119
2022-11-30T11:52:22.857Z,125
2022-11-30T11:53:23.166Z,122
2022-11-30T11:54:22.890Z,117
2022-11-30T11:55:22.874Z,122
2022-11-30T11:56:22.841Z,117
2022-11-30T11:57:22.875Z,115
2022-11-30T11:58:22.905Z,111
2022-11-30T11:59:24.811Z,113
2022-11-30T12:00:22.897Z,111
2022-11-30T12:01:40.443Z,104
2022-11-30T12:02:22.967Z,87
2022-11-30T12:03:22.930Z,93
2022-11-30T12:04:22.877Z,106
2022-11-30T12:05:22.863Z,88
2022-11-30T12:06:22.865Z,77
2022-11-30T12:07:22.885Z,84
2022-11-30T12:08:22.864Z,89
2022-11-30T12:09:22.852Z,89
2022-11-30T12:10:50.727Z,78
2022-11-30T12:11:22.943Z,89
2022-11-30T12:12:22.845Z,77
2022-11-30T12:13:22.863Z,77
2022-11-30T12:14:22.858Z,68
2022-11-30T12:15:22.848Z,74
2022-11-30T12:16:22.943Z,76
2022-11-30T12:17:22.872Z,65
2022-11-30T12:18:24.384Z,63
2022-11-30T12:19:22.850Z,64
2022-11-30T12:20:22.868Z,71
2022-11-30T12:21:22.853Z,67
2022-11-30T12:22:22.887Z,62
2022-11-30T12:23:22.911Z,61
2022-11-30T12:24:22.866Z,63
2022-11-30T12:25:22.885Z,64
2022-11-30T12:26:22.894Z,57
2022-11-30T12:27:22.853Z,56
2022-11-30T12:28:22.851Z,55
2022-11-30T12:29:22.856Z,61
2022-11-30T12:30:22.845Z,47
2022-11-30T12:31:22.899Z,51
2022-11-30T12:32:22.859Z,56
2022-11-30T12:33:25.124Z,60
2022-11-30T12:34:22.881Z,52
2022-11-30T12:35:22.849Z,53
2022-11-30T12:36:22.836Z,59
2022-11-30T12:37:22.884Z,55
2022-11-30T12:38:22.873Z,66
2022-11-30T12:39:22.846Z,60
2022-11-30T12:40:22.860Z,48
2022-11-30T12:41:22.901Z,62
2022-11-30T12:42:22.928Z,59
2022-11-30T12:43:22.865Z,61
2022-11-30T12:44:22.850Z,53
2022-11-30T12:45:22.870Z,57
2022-11-30T12:46:22.865Z,55
2022-11-30T12:47:22.866Z,61
2022-11-30T12:48:22.872Z,61
2022-11-30T12:49:22.894Z,64
2022-11-30T12:50:23.017Z,70
2022-11-30T12:51:29.335Z,69
2022-11-30T12:52:22.845Z,66
2022-11-30T12:53:22.862Z,70
2022-11-30T12:54:22.844Z,73
2022-11-30T12:55:22.835Z,76
2022-11-30T12:56:22.846Z,81
2022-11-30T12:57:22.890Z,75
2022-11-30T12:58:22.900Z,72
2022-11-30T12:59:22.841Z,76
2022-11-30T13:00:22.853Z,69
2022-11-30T13:01:22.916Z,77
2022-11-30T13:02:22.870Z,80
2022-11-30T13:03:22.866Z,73
2022-11-30T13:04:22.861Z,74
2022-11-30T13:05:22.887Z,93
2022-11-30T13:06:22.839Z,89
2022-11-30T13:07:22.889Z,69
2022-11-30T13:08:22.889Z,75
2022-11-30T13:09:22.872Z,77
2022-11-30T13:10:22.852Z,81
2022-11-30T13:11:22.860Z,83
2022-11-30T13:12:22.867Z,83
2022-11-30T13:13:22.968Z,80
2022-11-30T13:14:22.846Z,81
2022-11-30T13:15:22.842Z,75
2022-11-30T13:16:22.884Z,80
2022-11-30T13:17:22.840Z,76
2022-11-30T13:18:22.854Z,88
2022-11-30T13:19:22.840Z,87
2022-11-30T13:20:22.957Z,92
2022-11-30T13:21:23.035Z,82
2022-11-30T13:22:23.076Z,87
2022-11-30T13:23:22.979Z,92
2022-11-30T13:24:23.056Z,90
2022-11-30T13:25:44.931Z,92
2022-11-30T13:26:23.115Z,100
2022-11-30T13:27:22.834Z,103
2022-11-30T13:28:23.083Z,97
2022-11-30T13:29:23.203Z,105
2022-11-30T13:30:22.838Z,99
2022-11-30T13:31:22.891Z,101
2022-11-30T13:32:56.071Z,116
2022-11-30T13:33:22.864Z,108
2022-11-30T13:34:22.867Z,94
2022-11-30T13:35:22.844Z,107
2022-11-30T13:36:22.898Z,111
2022-11-30T13:37:27.219Z,93